Stoutland, Missouri
Current Conditions -  °F | °C
As of 2:35 PM on Friday 28 Nov 2014 (Local Time) from KH21 Reporting Station
Clear Clear  
Wind Chill: 59°   Ceiling: Unl
Heat Index: 59°   Visibility: 10mi
Dew Point: 34°   Wind: 13mph
Humidity: 39%   Direction: 180°S
Pressure: 29.91"   Gusts: 18mph
Location:  37.81°N, 92.51°W
Report Text: KH21 282035Z AUTO 18011G16KT 160V220 10SM CLR 15/01 A2991 RMK AO2
Loading
Personal Weather Stations






























Interactive Weather Map New forecast layout! Learn more

10-Day Weather Forecast

Advertisements
Track Severe Weather on mobile